sensor_id;sensor_type;location;lat;lon;timestamp;P1;durP1;ratioP1;P2;durP2;ratioP2
53505;SDS011;39388;50.936;6.848;2022-12-13T00:00:20;24.08;;;15.68;;
53505;SDS011;39388;50.936;6.848;2022-12-13T00:02:51;28.48;;;16.48;;
53505;SDS011;39388;50.936;6.848;2022-12-13T00:05:21;26.67;;;16.80;;
53505;SDS011;39388;50.936;6.848;2022-12-13T00:07:52;27.23;;;15.55;;
53505;SDS011;39388;50.936;6.848;2022-12-13T00:10:22;26.98;;;17.55;;
53505;SDS011;39388;50.936;6.848;2022-12-13T00:12:52;25.08;;;16.23;;
53505;SDS011;39388;50.936;6.848;2022-12-13T00:15:23;24.13;;;15.68;;
53505;SDS011;39388;50.936;6.848;2022-12-13T00:17:53;26.40;;;16.85;;
53505;SDS011;39388;50.936;6.848;2022-12-13T00:20:23;25.95;;;16.67;;
53505;SDS011;39388;50.936;6.848;2022-12-13T00:22:54;24.75;;;16.30;;
53505;SDS011;39388;50.936;6.848;2022-12-13T00:25:24;27.20;;;16.33;;
53505;SDS011;39388;50.936;6.848;2022-12-13T00:27:55;26.55;;;16.25;;
53505;SDS011;39388;50.936;6.848;2022-12-13T00:30:25;25.13;;;16.23;;
53505;SDS011;39388;50.936;6.848;2022-12-13T00:33:00;25.15;;;16.40;;
53505;SDS011;39388;50.936;6.848;2022-12-13T00:35:38;28.02;;;16.42;;
53505;SDS011;39388;50.936;6.848;2022-12-13T00:38:09;28.63;;;16.27;;
53505;SDS011;39388;50.936;6.848;2022-12-13T00:40:39;30.38;;;18.25;;
53505;SDS011;39388;50.936;6.848;2022-12-13T00:43:10;28.33;;;17.63;;
53505;SDS011;39388;50.936;6.848;2022-12-13T00:45:40;28.55;;;17.95;;
53505;SDS011;39388;50.936;6.848;2022-12-13T00:48:11;26.17;;;17.23;;
53505;SDS011;39388;50.936;6.848;2022-12-13T00:50:41;29.52;;;17.70;;
53505;SDS011;39388;50.936;6.848;2022-12-13T00:53:11;26.23;;;16.80;;
53505;SDS011;39388;50.936;6.848;2022-12-13T00:55:42;31.75;;;16.75;;
53505;SDS011;39388;50.936;6.848;2022-12-13T00:58:12;27.25;;;16.70;;
53505;SDS011;39388;50.936;6.848;2022-12-13T01:00:42;30.20;;;17.10;;
53505;SDS011;39388;50.936;6.848;2022-12-13T01:03:13;27.55;;;16.75;;
53505;SDS011;39388;50.936;6.848;2022-12-13T01:05:50;26.27;;;18.10;;
53505;SDS011;39388;50.936;6.848;2022-12-13T01:08:20;25.05;;;16.42;;
53505;SDS011;39388;50.936;6.848;2022-12-13T01:10:51;27.98;;;18.73;;
53505;SDS011;39388;50.936;6.848;2022-12-13T01:13:21;27.60;;;16.95;;
53505;SDS011;39388;50.936;6.848;2022-12-13T01:15:51;28.48;;;17.38;;
53505;SDS011;39388;50.936;6.848;2022-12-13T01:18:22;27.10;;;16.92;;
53505;SDS011;39388;50.936;6.848;2022-12-13T01:20:56;26.65;;;16.77;;
53505;SDS011;39388;50.936;6.848;2022-12-13T01:23:37;27.88;;;17.83;;
53505;SDS011;39388;50.936;6.848;2022-12-13T01:26:09;29.95;;;17.70;;
53505;SDS011;39388;50.936;6.848;2022-12-13T01:28:42;26.98;;;17.55;;
53505;SDS011;39388;50.936;6.848;2022-12-13T01:31:13;28.98;;;17.20;;
53505;SDS011;39388;50.936;6.848;2022-12-13T01:33:46;30.40;;;18.33;;
53505;SDS011;39388;50.936;6.848;2022-12-13T01:36:19;28.02;;;17.15;;
53505;SDS011;39388;50.936;6.848;2022-12-13T01:38:50;29.58;;;17.60;;
53505;SDS011;39388;50.936;6.848;2022-12-13T01:41:21;31.30;;;17.60;;
53505;SDS011;39388;50.936;6.848;2022-12-13T01:43:52;30.92;;;17.88;;
53505;SDS011;39388;50.936;6.848;2022-12-13T01:46:25;27.23;;;16.70;;
53505;SDS011;39388;50.936;6.848;2022-12-13T01:51:40;27.77;;;17.42;;
53505;SDS011;39388;50.936;6.848;2022-12-13T01:54:25;29.73;;;18.10;;
53505;SDS011;39388;50.936;6.848;2022-12-13T01:57:01;27.98;;;17.75;;
53505;SDS011;39388;50.936;6.848;2022-12-13T01:59:37;29.88;;;18.55;;
53505;SDS011;39388;50.936;6.848;2022-12-13T02:02:10;30.58;;;18.40;;
53505;SDS011;39388;50.936;6.848;2022-12-13T02:05:03;28.70;;;17.67;;
53505;SDS011;39388;50.936;6.848;2022-12-13T02:07:39;26.48;;;17.80;;
53505;SDS011;39388;50.936;6.848;2022-12-13T02:10:11;29.23;;;18.42;;
53505;SDS011;39388;50.936;6.848;2022-12-13T02:12:42;29.25;;;17.63;;
53505;SDS011;39388;50.936;6.848;2022-12-13T02:15:13;29.98;;;18.75;;
53505;SDS011;39388;50.936;6.848;2022-12-13T02:26:24;27.63;;;18.80;;
53505;SDS011;39388;50.936;6.848;2022-12-13T02:34:46;30.50;;;18.10;;
53505;SDS011;39388;50.936;6.848;2022-12-13T02:37:24;27.98;;;18.02;;
53505;SDS011;39388;50.936;6.848;2022-12-13T02:40:05;30.00;;;18.58;;
53505;SDS011;39388;50.936;6.848;2022-12-13T02:42:48;26.40;;;17.88;;
53505;SDS011;39388;50.936;6.848;2022-12-13T02:45:30;28.45;;;17.75;;
53505;SDS011;39388;50.936;6.848;2022-12-13T02:48:07;26.70;;;18.25;;
53505;SDS011;39388;50.936;6.848;2022-12-13T02:50:40;29.85;;;18.35;;
53505;SDS011;39388;50.936;6.848;2022-12-13T02:53:12;28.00;;;17.50;;
53505;SDS011;39388;50.936;6.848;2022-12-13T02:55:44;26.50;;;18.05;;
53505;SDS011;39388;50.936;6.848;2022-12-13T02:58:16;30.67;;;18.90;;
53505;SDS011;39388;50.936;6.848;2022-12-13T03:14:52;35.40;;;18.20;;
53505;SDS011;39388;50.936;6.848;2022-12-13T03:17:30;31.08;;;18.65;;
53505;SDS011;39388;50.936;6.848;2022-12-13T03:20:07;27.90;;;17.38;;
53505;SDS011;39388;50.936;6.848;2022-12-13T03:22:38;27.50;;;18.13;;
53505;SDS011;39388;50.936;6.848;2022-12-13T03:25:08;29.08;;;17.95;;
53505;SDS011;39388;50.936;6.848;2022-12-13T03:27:39;30.88;;;17.83;;
53505;SDS011;39388;50.936;6.848;2022-12-13T03:30:10;31.73;;;17.73;;
53505;SDS011;39388;50.936;6.848;2022-12-13T03:32:40;27.77;;;16.63;;
53505;SDS011;39388;50.936;6.848;2022-12-13T03:35:11;26.85;;;17.63;;
53505;SDS011;39388;50.936;6.848;2022-12-13T03:37:41;28.80;;;17.50;;
53505;SDS011;39388;50.936;6.848;2022-12-13T03:40:12;30.17;;;16.67;;
53505;SDS011;39388;50.936;6.848;2022-12-13T03:42:42;27.48;;;16.95;;
53505;SDS011;39388;50.936;6.848;2022-12-13T03:45:13;29.15;;;18.10;;
53505;SDS011;39388;50.936;6.848;2022-12-13T03:47:43;31.92;;;18.42;;
53505;SDS011;39388;50.936;6.848;2022-12-13T03:50:13;30.00;;;18.75;;
53505;SDS011;39388;50.936;6.848;2022-12-13T03:52:44;28.42;;;17.55;;
53505;SDS011;39388;50.936;6.848;2022-12-13T03:55:17;33.63;;;19.90;;
53505;SDS011;39388;50.936;6.848;2022-12-13T03:57:47;29.02;;;17.20;;
53505;SDS011;39388;50.936;6.848;2022-12-13T04:00:18;28.50;;;17.50;;
53505;SDS011;39388;50.936;6.848;2022-12-13T04:02:48;28.27;;;17.92;;
53505;SDS011;39388;50.936;6.848;2022-12-13T04:05:19;26.55;;;16.67;;
53505;SDS011;39388;50.936;6.848;2022-12-13T04:07:49;27.40;;;17.33;;
53505;SDS011;39388;50.936;6.848;2022-12-13T04:10:19;30.70;;;17.83;;
53505;SDS011;39388;50.936;6.848;2022-12-13T04:12:50;26.45;;;16.42;;
53505;SDS011;39388;50.936;6.848;2022-12-13T04:15:39;27.60;;;16.70;;
53505;SDS011;39388;50.936;6.848;2022-12-13T04:18:09;26.45;;;16.52;;
53505;SDS011;39388;50.936;6.848;2022-12-13T04:20:39;27.85;;;17.33;;
53505;SDS011;39388;50.936;6.848;2022-12-13T04:23:10;29.90;;;16.80;;
53505;SDS011;39388;50.936;6.848;2022-12-13T04:25:41;26.92;;;16.92;;
53505;SDS011;39388;50.936;6.848;2022-12-13T04:28:12;26.75;;;16.23;;
53505;SDS011;39388;50.936;6.848;2022-12-13T04:30:43;28.23;;;17.23;;
53505;SDS011;39388;50.936;6.848;2022-12-13T04:33:13;28.10;;;17.92;;
53505;SDS011;39388;50.936;6.848;2022-12-13T04:35:44;26.92;;;17.45;;
53505;SDS011;39388;50.936;6.848;2022-12-13T04:38:14;28.58;;;18.08;;
53505;SDS011;39388;50.936;6.848;2022-12-13T04:40:45;28.58;;;16.27;;
53505;SDS011;39388;50.936;6.848;2022-12-13T04:43:15;28.17;;;18.13;;
53505;SDS011;39388;50.936;6.848;2022-12-13T04:45:45;27.25;;;17.95;;
53505;SDS011;39388;50.936;6.848;2022-12-13T04:48:16;27.92;;;17.95;;
53505;SDS011;39388;50.936;6.848;2022-12-13T04:50:46;31.52;;;18.33;;
53505;SDS011;39388;50.936;6.848;2022-12-13T04:53:17;27.08;;;18.25;;
53505;SDS011;39388;50.936;6.848;2022-12-13T04:55:47;28.95;;;17.60;;
53505;SDS011;39388;50.936;6.848;2022-12-13T04:58:18;28.40;;;18.25;;
53505;SDS011;39388;50.936;6.848;2022-12-13T05:00:48;28.88;;;17.98;;
53505;SDS011;39388;50.936;6.848;2022-12-13T05:03:18;29.05;;;17.80;;
53505;SDS011;39388;50.936;6.848;2022-12-13T05:05:49;28.73;;;17.42;;
53505;SDS011;39388;50.936;6.848;2022-12-13T05:08:19;31.20;;;19.20;;
53505;SDS011;39388;50.936;6.848;2022-12-13T05:10:50;30.35;;;19.00;;
53505;SDS011;39388;50.936;6.848;2022-12-13T05:13:20;29.13;;;17.20;;
53505;SDS011;39388;50.936;6.848;2022-12-13T05:15:54;28.20;;;17.45;;
53505;SDS011;39388;50.936;6.848;2022-12-13T05:18:26;32.42;;;19.83;;
53505;SDS011;39388;50.936;6.848;2022-12-13T05:21:02;30.42;;;19.10;;
53505;SDS011;39388;50.936;6.848;2022-12-13T05:23:36;30.65;;;18.05;;
53505;SDS011;39388;50.936;6.848;2022-12-13T05:26:07;31.95;;;18.65;;
53505;SDS011;39388;50.936;6.848;2022-12-13T05:28:37;29.02;;;17.38;;
53505;SDS011;39388;50.936;6.848;2022-12-13T05:31:09;28.10;;;18.27;;
53505;SDS011;39388;50.936;6.848;2022-12-13T05:33:41;30.65;;;17.77;;
53505;SDS011;39388;50.936;6.848;2022-12-13T05:36:11;30.20;;;18.58;;
53505;SDS011;39388;50.936;6.848;2022-12-13T05:38:41;29.08;;;18.08;;
53505;SDS011;39388;50.936;6.848;2022-12-13T05:41:15;27.80;;;17.15;;
53505;SDS011;39388;50.936;6.848;2022-12-13T05:43:49;26.35;;;17.25;;
53505;SDS011;39388;50.936;6.848;2022-12-13T05:46:20;26.33;;;16.40;;
53505;SDS011;39388;50.936;6.848;2022-12-13T05:48:50;31.10;;;17.92;;
53505;SDS011;39388;50.936;6.848;2022-12-13T05:51:21;25.60;;;16.40;;
53505;SDS011;39388;50.936;6.848;2022-12-13T05:53:51;28.13;;;17.27;;
53505;SDS011;39388;50.936;6.848;2022-12-13T05:56:22;26.88;;;17.05;;
53505;SDS011;39388;50.936;6.848;2022-12-13T05:58:52;27.95;;;17.58;;
53505;SDS011;39388;50.936;6.848;2022-12-13T06:01:23;28.30;;;17.10;;
53505;SDS011;39388;50.936;6.848;2022-12-13T06:03:53;28.45;;;17.17;;
53505;SDS011;39388;50.936;6.848;2022-12-13T06:06:23;29.38;;;18.23;;
53505;SDS011;39388;50.936;6.848;2022-12-13T06:08:54;24.73;;;14.65;;
53505;SDS011;39388;50.936;6.848;2022-12-13T06:11:24;30.83;;;17.33;;
53505;SDS011;39388;50.936;6.848;2022-12-13T06:13:55;26.45;;;16.67;;
53505;SDS011;39388;50.936;6.848;2022-12-13T06:16:25;29.60;;;17.45;;
53505;SDS011;39388;50.936;6.848;2022-12-13T06:18:55;25.48;;;17.13;;
53505;SDS011;39388;50.936;6.848;2022-12-13T06:21:26;26.08;;;16.55;;
53505;SDS011;39388;50.936;6.848;2022-12-13T06:23:57;26.75;;;17.27;;
53505;SDS011;39388;50.936;6.848;2022-12-13T06:26:27;26.33;;;17.42;;
53505;SDS011;39388;50.936;6.848;2022-12-13T06:28:57;21.10;;;14.27;;
53505;SDS011;39388;50.936;6.848;2022-12-13T06:31:28;28.17;;;17.60;;
53505;SDS011;39388;50.936;6.848;2022-12-13T06:34:02;26.63;;;16.83;;
53505;SDS011;39388;50.936;6.848;2022-12-13T06:36:33;28.70;;;16.58;;
53505;SDS011;39388;50.936;6.848;2022-12-13T06:39:04;28.83;;;16.45;;
53505;SDS011;39388;50.936;6.848;2022-12-13T06:41:35;28.60;;;17.03;;
53505;SDS011;39388;50.936;6.848;2022-12-13T06:44:06;29.45;;;17.38;;
53505;SDS011;39388;50.936;6.848;2022-12-13T06:46:37;25.52;;;16.30;;
53505;SDS011;39388;50.936;6.848;2022-12-13T06:49:07;27.15;;;16.95;;
53505;SDS011;39388;50.936;6.848;2022-12-13T06:51:37;26.70;;;16.20;;
53505;SDS011;39388;50.936;6.848;2022-12-13T06:54:08;30.10;;;17.15;;
53505;SDS011;39388;50.936;6.848;2022-12-13T06:56:38;26.15;;;16.55;;
53505;SDS011;39388;50.936;6.848;2022-12-13T06:59:09;25.23;;;17.02;;
53505;SDS011;39388;50.936;6.848;2022-12-13T07:01:39;29.33;;;17.35;;
53505;SDS011;39388;50.936;6.848;2022-12-13T07:04:10;25.33;;;16.63;;
53505;SDS011;39388;50.936;6.848;2022-12-13T07:06:41;23.10;;;15.93;;
53505;SDS011;39388;50.936;6.848;2022-12-13T07:09:11;26.70;;;16.35;;
53505;SDS011;39388;50.936;6.848;2022-12-13T07:11:42;24.02;;;14.32;;
53505;SDS011;39388;50.936;6.848;2022-12-13T07:14:12;25.35;;;15.95;;
53505;SDS011;39388;50.936;6.848;2022-12-13T07:16:42;21.15;;;14.55;;
53505;SDS011;39388;50.936;6.848;2022-12-13T07:19:13;25.90;;;15.90;;
53505;SDS011;39388;50.936;6.848;2022-12-13T07:21:43;24.05;;;15.60;;
53505;SDS011;39388;50.936;6.848;2022-12-13T07:24:14;22.15;;;15.88;;
53505;SDS011;39388;50.936;6.848;2022-12-13T07:26:44;25.77;;;15.73;;
53505;SDS011;39388;50.936;6.848;2022-12-13T07:29:15;26.08;;;14.95;;
53505;SDS011;39388;50.936;6.848;2022-12-13T07:31:45;25.48;;;17.95;;
53505;SDS011;39388;50.936;6.848;2022-12-13T07:34:16;23.80;;;15.48;;
53505;SDS011;39388;50.936;6.848;2022-12-13T07:36:48;21.70;;;13.90;;
53505;SDS011;39388;50.936;6.848;2022-12-13T07:39:19;27.98;;;15.38;;
53505;SDS011;39388;50.936;6.848;2022-12-13T07:41:54;23.33;;;15.15;;
53505;SDS011;39388;50.936;6.848;2022-12-13T07:44:25;24.10;;;15.52;;
53505;SDS011;39388;50.936;6.848;2022-12-13T07:46:56;16.50;;;12.60;;
53505;SDS011;39388;50.936;6.848;2022-12-13T07:49:26;26.73;;;15.45;;
53505;SDS011;39388;50.936;6.848;2022-12-13T07:51:56;22.05;;;15.40;;
53505;SDS011;39388;50.936;6.848;2022-12-13T07:54:27;23.00;;;14.80;;
53505;SDS011;39388;50.936;6.848;2022-12-13T07:56:57;21.30;;;13.80;;
53505;SDS011;39388;50.936;6.848;2022-12-13T07:59:27;26.13;;;15.60;;
53505;SDS011;39388;50.936;6.848;2022-12-13T08:01:58;21.60;;;13.82;;
53505;SDS011;39388;50.936;6.848;2022-12-13T08:04:28;25.15;;;15.23;;
53505;SDS011;39388;50.936;6.848;2022-12-13T08:06:58;23.05;;;15.35;;
53505;SDS011;39388;50.936;6.848;2022-12-13T08:09:29;25.13;;;16.58;;
53505;SDS011;39388;50.936;6.848;2022-12-13T08:11:59;25.45;;;16.17;;
53505;SDS011;39388;50.936;6.848;2022-12-13T08:14:30;24.83;;;16.70;;
53505;SDS011;39388;50.936;6.848;2022-12-13T08:17:01;24.23;;;15.15;;
53505;SDS011;39388;50.936;6.848;2022-12-13T08:19:31;25.38;;;15.50;;
53505;SDS011;39388;50.936;6.848;2022-12-13T08:22:01;26.85;;;16.00;;
53505;SDS011;39388;50.936;6.848;2022-12-13T08:24:33;24.25;;;15.43;;
53505;SDS011;39388;50.936;6.848;2022-12-13T08:27:04;24.10;;;14.27;;
53505;SDS011;39388;50.936;6.848;2022-12-13T08:29:34;21.65;;;15.70;;
53505;SDS011;39388;50.936;6.848;2022-12-13T08:32:06;23.15;;;15.35;;
53505;SDS011;39388;50.936;6.848;2022-12-13T08:34:38;29.45;;;17.30;;
53505;SDS011;39388;50.936;6.848;2022-12-13T08:37:10;26.48;;;16.38;;
53505;SDS011;39388;50.936;6.848;2022-12-13T08:39:41;30.90;;;18.15;;
53505;SDS011;39388;50.936;6.848;2022-12-13T08:42:14;21.33;;;14.00;;
53505;SDS011;39388;50.936;6.848;2022-12-13T08:44:49;23.38;;;14.73;;
53505;SDS011;39388;50.936;6.848;2022-12-13T08:47:24;22.40;;;14.48;;
53505;SDS011;39388;50.936;6.848;2022-12-13T08:49:56;20.42;;;14.13;;
53505;SDS011;39388;50.936;6.848;2022-12-13T08:52:32;24.63;;;14.82;;
53505;SDS011;39388;50.936;6.848;2022-12-13T08:55:03;23.08;;;15.25;;
53505;SDS011;39388;50.936;6.848;2022-12-13T08:57:34;28.50;;;15.90;;
53505;SDS011;39388;50.936;6.848;2022-12-13T09:00:06;24.20;;;15.18;;
53505;SDS011;39388;50.936;6.848;2022-12-13T09:02:38;26.70;;;15.98;;
53505;SDS011;39388;50.936;6.848;2022-12-13T09:05:09;25.70;;;14.98;;
53505;SDS011;39388;50.936;6.848;2022-12-13T09:07:40;25.15;;;15.43;;
53505;SDS011;39388;50.936;6.848;2022-12-13T09:10:10;22.27;;;15.07;;
53505;SDS011;39388;50.936;6.848;2022-12-13T09:12:41;23.02;;;15.48;;
53505;SDS011;39388;50.936;6.848;2022-12-13T09:15:12;24.88;;;15.32;;
53505;SDS011;39388;50.936;6.848;2022-12-13T09:17:42;21.60;;;14.15;;
53505;SDS011;39388;50.936;6.848;2022-12-13T09:20:12;25.38;;;16.00;;
53505;SDS011;39388;50.936;6.848;2022-12-13T09:22:43;26.15;;;16.13;;
53505;SDS011;39388;50.936;6.848;2022-12-13T09:25:13;24.60;;;15.90;;
53505;SDS011;39388;50.936;6.848;2022-12-13T09:27:44;23.13;;;15.38;;
53505;SDS011;39388;50.936;6.848;2022-12-13T09:30:14;22.90;;;14.93;;
53505;SDS011;39388;50.936;6.848;2022-12-13T09:32:44;21.23;;;14.68;;
53505;SDS011;39388;50.936;6.848;2022-12-13T09:35:18;23.20;;;15.15;;
53505;SDS011;39388;50.936;6.848;2022-12-13T09:37:49;25.38;;;15.30;;
53505;SDS011;39388;50.936;6.848;2022-12-13T09:40:21;21.88;;;14.45;;
53505;SDS011;39388;50.936;6.848;2022-12-13T09:42:55;22.77;;;14.30;;
53505;SDS011;39388;50.936;6.848;2022-12-13T09:45:27;22.15;;;14.77;;
53505;SDS011;39388;50.936;6.848;2022-12-13T09:47:58;22.77;;;13.63;;
53505;SDS011;39388;50.936;6.848;2022-12-13T09:50:31;19.83;;;13.10;;
53505;SDS011;39388;50.936;6.848;2022-12-13T09:53:04;22.67;;;14.75;;
53505;SDS011;39388;50.936;6.848;2022-12-13T09:55:37;19.02;;;14.13;;
53505;SDS011;39388;50.936;6.848;2022-12-13T09:58:16;18.95;;;12.80;;
53505;SDS011;39388;50.936;6.848;2022-12-13T10:00:50;20.85;;;12.02;;
53505;SDS011;39388;50.936;6.848;2022-12-13T10:03:22;22.10;;;14.25;;
53505;SDS011;39388;50.936;6.848;2022-12-13T10:08:31;19.92;;;13.13;;
53505;SDS011;39388;50.936;6.848;2022-12-13T10:11:09;20.63;;;12.50;;
53505;SDS011;39388;50.936;6.848;2022-12-13T10:13:42;18.77;;;12.48;;
53505;SDS011;39388;50.936;6.848;2022-12-13T10:19:47;18.60;;;12.55;;
53505;SDS011;39388;50.936;6.848;2022-12-13T10:22:02;22.42;;;14.15;;
53505;SDS011;39388;50.936;6.848;2022-12-13T10:27:29;19.73;;;13.18;;
53505;SDS011;39388;50.936;6.848;2022-12-13T10:32:55;19.65;;;12.13;;
53505;SDS011;39388;50.936;6.848;2022-12-13T10:35:38;19.25;;;12.40;;
53505;SDS011;39388;50.936;6.848;2022-12-13T10:40:43;18.88;;;12.93;;
53505;SDS011;39388;50.936;6.848;2022-12-13T10:51:18;17.27;;;12.30;;
53505;SDS011;39388;50.936;6.848;2022-12-13T10:56:37;15.00;;;10.43;;
53505;SDS011;39388;50.936;6.848;2022-12-13T11:01:49;19.88;;;12.80;;
53505;SDS011;39388;50.936;6.848;2022-12-13T11:04:25;16.35;;;11.25;;
53505;SDS011;39388;50.936;6.848;2022-12-13T11:07:36;21.00;;;12.88;;
53505;SDS011;39388;50.936;6.848;2022-12-13T11:10:20;18.65;;;13.10;;
53505;SDS011;39388;50.936;6.848;2022-12-13T11:13:01;17.40;;;11.82;;
53505;SDS011;39388;50.936;6.848;2022-12-13T11:15:34;17.85;;;12.25;;
53505;SDS011;39388;50.936;6.848;2022-12-13T11:18:07;16.23;;;11.73;;
53505;SDS011;39388;50.936;6.848;2022-12-13T11:20:53;17.52;;;11.95;;
53505;SDS011;39388;50.936;6.848;2022-12-13T11:23:32;17.27;;;11.55;;
53505;SDS011;39388;50.936;6.848;2022-12-13T11:26:08;15.88;;;11.20;;
53505;SDS011;39388;50.936;6.848;2022-12-13T11:34:31;20.90;;;11.82;;
53505;SDS011;39388;50.936;6.848;2022-12-13T11:39:42;18.65;;;12.25;;
53505;SDS011;39388;50.936;6.848;2022-12-13T11:45:17;15.50;;;10.75;;
53505;SDS011;39388;50.936;6.848;2022-12-13T11:47:58;20.35;;;12.38;;
53505;SDS011;39388;50.936;6.848;2022-12-13T11:50:47;17.27;;;11.48;;
53505;SDS011;39388;50.936;6.848;2022-12-13T11:53:30;19.63;;;12.00;;
53505;SDS011;39388;50.936;6.848;2022-12-13T11:56:26;17.55;;;11.07;;
53505;SDS011;39388;50.936;6.848;2022-12-13T11:59:00;17.88;;;11.93;;
53505;SDS011;39388;50.936;6.848;2022-12-13T12:04:29;18.10;;;12.00;;
53505;SDS011;39388;50.936;6.848;2022-12-13T12:07:11;18.05;;;11.70;;
53505;SDS011;39388;50.936;6.848;2022-12-13T12:09:43;16.67;;;11.23;;
53505;SDS011;39388;50.936;6.848;2022-12-13T12:12:26;18.02;;;11.43;;
53505;SDS011;39388;50.936;6.848;2022-12-13T12:15:06;20.40;;;11.55;;
53505;SDS011;39388;50.936;6.848;2022-12-13T12:17:39;17.45;;;11.57;;
53505;SDS011;39388;50.936;6.848;2022-12-13T12:20:12;18.85;;;11.70;;
53505;SDS011;39388;50.936;6.848;2022-12-13T12:23:00;20.00;;;11.70;;
53505;SDS011;39388;50.936;6.848;2022-12-13T12:25:41;18.50;;;11.68;;
53505;SDS011;39388;50.936;6.848;2022-12-13T12:28:33;19.70;;;12.55;;
53505;SDS011;39388;50.936;6.848;2022-12-13T12:31:28;18.85;;;11.70;;
53505;SDS011;39388;50.936;6.848;2022-12-13T12:40:14;20.92;;;11.55;;
53505;SDS011;39388;50.936;6.848;2022-12-13T12:48:24;15.98;;;11.25;;
53505;SDS011;39388;50.936;6.848;2022-12-13T12:53:38;17.60;;;11.35;;
53505;SDS011;39388;50.936;6.848;2022-12-13T13:02:05;14.30;;;9.68;;
53505;SDS011;39388;50.936;6.848;2022-12-13T13:04:53;16.95;;;10.38;;
53505;SDS011;39388;50.936;6.848;2022-12-13T13:07:33;16.50;;;11.50;;
53505;SDS011;39388;50.936;6.848;2022-12-13T13:10:08;16.85;;;10.57;;
53505;SDS011;39388;50.936;6.848;2022-12-13T13:12:40;14.57;;;9.52;;
53505;SDS011;39388;50.936;6.848;2022-12-13T13:18:01;17.50;;;11.52;;
53505;SDS011;39388;50.936;6.848;2022-12-13T13:20:31;13.68;;;9.48;;
53505;SDS011;39388;50.936;6.848;2022-12-13T13:23:02;13.57;;;9.98;;
53505;SDS011;39388;50.936;6.848;2022-12-13T13:25:44;14.10;;;9.60;;
53505;SDS011;39388;50.936;6.848;2022-12-13T13:28:24;15.73;;;10.07;;
53505;SDS011;39388;50.936;6.848;2022-12-13T13:31:02;14.68;;;9.30;;
53505;SDS011;39388;50.936;6.848;2022-12-13T13:33:43;12.38;;;8.88;;
53505;SDS011;39388;50.936;6.848;2022-12-13T13:39:16;14.32;;;10.00;;
53505;SDS011;39388;50.936;6.848;2022-12-13T13:42:16;15.95;;;10.32;;
53505;SDS011;39388;50.936;6.848;2022-12-13T14:24:48;12.45;;;8.52;;
53505;SDS011;39388;50.936;6.848;2022-12-13T14:39:14;13.15;;;8.05;;
53505;SDS011;39388;50.936;6.848;2022-12-13T14:42:22;10.60;;;7.32;;
53505;SDS011;39388;50.936;6.848;2022-12-13T14:45:11;12.35;;;8.45;;
53505;SDS011;39388;50.936;6.848;2022-12-13T14:47:42;14.00;;;8.70;;
53505;SDS011;39388;50.936;6.848;2022-12-13T14:50:16;10.50;;;8.50;;
53505;SDS011;39388;50.936;6.848;2022-12-13T14:52:47;13.93;;;8.75;;
53505;SDS011;39388;50.936;6.848;2022-12-13T14:55:29;11.88;;;8.32;;
53505;SDS011;39388;50.936;6.848;2022-12-13T14:58:03;16.23;;;8.43;;
53505;SDS011;39388;50.936;6.848;2022-12-13T15:00:45;10.15;;;7.90;;
53505;SDS011;39388;50.936;6.848;2022-12-13T15:03:25;12.88;;;8.68;;
53505;SDS011;39388;50.936;6.848;2022-12-13T15:05:57;13.38;;;8.98;;
53505;SDS011;39388;50.936;6.848;2022-12-13T15:08:30;11.30;;;7.82;;
53505;SDS011;39388;50.936;6.848;2022-12-13T15:11:03;10.32;;;8.10;;
53505;SDS011;39388;50.936;6.848;2022-12-13T15:13:38;11.45;;;7.70;;
53505;SDS011;39388;50.936;6.848;2022-12-13T15:16:22;14.32;;;9.52;;
53505;SDS011;39388;50.936;6.848;2022-12-13T15:21:40;14.48;;;9.65;;
53505;SDS011;39388;50.936;6.848;2022-12-13T15:24:23;12.23;;;8.43;;
53505;SDS011;39388;50.936;6.848;2022-12-13T15:26:57;14.68;;;8.98;;
53505;SDS011;39388;50.936;6.848;2022-12-13T15:29:33;12.73;;;8.52;;
53505;SDS011;39388;50.936;6.848;2022-12-13T15:32:07;12.82;;;9.25;;
53505;SDS011;39388;50.936;6.848;2022-12-13T15:34:45;12.05;;;9.15;;
53505;SDS011;39388;50.936;6.848;2022-12-13T15:39:51;14.18;;;9.55;;
53505;SDS011;39388;50.936;6.848;2022-12-13T15:42:32;13.38;;;8.95;;
53505;SDS011;39388;50.936;6.848;2022-12-13T15:45:06;11.52;;;8.35;;
53505;SDS011;39388;50.936;6.848;2022-12-13T15:47:50;12.98;;;9.10;;
53505;SDS011;39388;50.936;6.848;2022-12-13T15:50:34;12.90;;;9.18;;
53505;SDS011;39388;50.936;6.848;2022-12-13T15:53:18;12.35;;;8.50;;
53505;SDS011;39388;50.936;6.848;2022-12-13T15:55:53;14.82;;;9.00;;
53505;SDS011;39388;50.936;6.848;2022-12-13T16:01:52;12.07;;;9.20;;
53505;SDS011;39388;50.936;6.848;2022-12-13T16:04:25;13.95;;;8.13;;
53505;SDS011;39388;50.936;6.848;2022-12-13T16:06:58;13.52;;;9.35;;
53505;SDS011;39388;50.936;6.848;2022-12-13T16:09:32;28.45;;;12.85;;
53505;SDS011;39388;50.936;6.848;2022-12-13T16:12:04;70.63;;;23.17;;
53505;SDS011;39388;50.936;6.848;2022-12-13T16:14:40;18.30;;;9.13;;
53505;SDS011;39388;50.936;6.848;2022-12-13T16:19:54;12.77;;;8.73;;
53505;SDS011;39388;50.936;6.848;2022-12-13T16:22:27;14.00;;;9.35;;
53505;SDS011;39388;50.936;6.848;2022-12-13T16:24:58;21.52;;;13.75;;
53505;SDS011;39388;50.936;6.848;2022-12-13T16:27:29;17.52;;;11.70;;
53505;SDS011;39388;50.936;6.848;2022-12-13T16:29:59;13.57;;;10.38;;
53505;SDS011;39388;50.936;6.848;2022-12-13T16:32:30;14.32;;;10.23;;
53505;SDS011;39388;50.936;6.848;2022-12-13T16:35:00;13.55;;;9.15;;
53505;SDS011;39388;50.936;6.848;2022-12-13T16:37:30;12.88;;;9.55;;
53505;SDS011;39388;50.936;6.848;2022-12-13T16:40:04;15.23;;;9.90;;
53505;SDS011;39388;50.936;6.848;2022-12-13T16:42:51;14.05;;;9.35;;
53505;SDS011;39388;50.936;6.848;2022-12-13T16:45:27;13.70;;;9.52;;
53505;SDS011;39388;50.936;6.848;2022-12-13T16:47:59;12.88;;;9.98;;
53505;SDS011;39388;50.936;6.848;2022-12-13T16:50:30;14.07;;;9.35;;
53505;SDS011;39388;50.936;6.848;2022-12-13T16:53:02;14.23;;;9.93;;
53505;SDS011;39388;50.936;6.848;2022-12-13T16:55:32;13.02;;;8.93;;
53505;SDS011;39388;50.936;6.848;2022-12-13T16:58:06;13.18;;;9.65;;
53505;SDS011;39388;50.936;6.848;2022-12-13T17:00:41;17.48;;;11.20;;
53505;SDS011;39388;50.936;6.848;2022-12-13T17:03:14;12.30;;;9.38;;
53505;SDS011;39388;50.936;6.848;2022-12-13T17:05:44;13.45;;;9.10;;
53505;SDS011;39388;50.936;6.848;2022-12-13T17:08:15;11.07;;;7.97;;
53505;SDS011;39388;50.936;6.848;2022-12-13T17:10:46;12.85;;;9.23;;
53505;SDS011;39388;50.936;6.848;2022-12-13T17:13:16;12.30;;;8.50;;
53505;SDS011;39388;50.936;6.848;2022-12-13T17:15:46;12.55;;;8.43;;
53505;SDS011;39388;50.936;6.848;2022-12-13T17:18:17;15.07;;;9.45;;
53505;SDS011;39388;50.936;6.848;2022-12-13T17:20:48;12.50;;;9.63;;
53505;SDS011;39388;50.936;6.848;2022-12-13T17:23:19;13.00;;;8.85;;
53505;SDS011;39388;50.936;6.848;2022-12-13T17:25:49;11.10;;;8.80;;
53505;SDS011;39388;50.936;6.848;2022-12-13T17:28:20;11.50;;;8.15;;
53505;SDS011;39388;50.936;6.848;2022-12-13T17:30:50;13.02;;;8.63;;
53505;SDS011;39388;50.936;6.848;2022-12-13T17:33:20;13.75;;;9.48;;
53505;SDS011;39388;50.936;6.848;2022-12-13T17:35:51;12.60;;;8.65;;
53505;SDS011;39388;50.936;6.848;2022-12-13T17:38:21;12.40;;;8.48;;
53505;SDS011;39388;50.936;6.848;2022-12-13T17:40:52;13.85;;;8.80;;